NCAR-RAP Real-Time Weather Data

Output produced by METARs form (10 April 2020  06:53 UTC)
found at http://weather.rap.ucar.edu/surface/
 
KMHE 100553Z AUTO 29004KT 10SM CLR M03/M08 A3021 RMK AO2 SLP247 T10331078 10033 21033 400441033 55006
KMHE 100453Z AUTO 28006KT 10SM CLR M03/M08 A3021 RMK AO2 SLP245 T10281078
KMHE 100353Z AUTO 27007KT 10SM CLR M02/M08 A3023 RMK AO2 SLP252 T10171078
KMHE 100253Z AUTO 26006KT 10SM CLR M01/M08 A3023 RMK AO2 SLP252 T10111078 53006
KMHE 100153Z AUTO 30004KT 10SM CLR M01/M07 A3021 RMK AO2 SLP246 T10061072
KMHE 100053Z AUTO 33008KT 10SM CLR 02/M08 A3022 RMK AO2 SLP246 T00221078
KMHE 092353Z AUTO 34014G21KT 10SM CLR 03/M08 A3021 RMK AO2 PK WND 33026/2254 SLP243 T00331083 10044 20022 56001
KMHE 092253Z AUTO 33016G23KT 10SM FEW050 04/M08 A3021 RMK AO2 PK WND 33027/2202 SLP242 T00391083
KMHE 092153Z AUTO 33018G28KT 10SM OVC050 04/M08 A3020 RMK AO2 PK WND 34031/2105 SLP240 T00391083
KMHE 092053Z AUTO 33020G30KT 10SM BKN050 03/M09 A3022 RMK AO2 PK WND 35034/2014 SLP245 T00281089 50009
KMHE 091953Z AUTO 34021G32KT 10SM OVC047 03/M08 A3022 RMK AO2 PK WND 01035/1859 SLP246 T00281078
KMHE 091853Z AUTO 34025G34KT 10SM BKN047 03/M08 A3020 RMK AO2 PK WND 32036/1824 SLP240 T00331078
KMHE 091753Z AUTO 34023G38KT 10SM SCT048 02/M09 A3019 RMK AO2 PK WND 35044/1728 SLP234 T00221089 10033 20017 51027
KMHE 091653Z AUTO 33032G43KT 10SM SCT038 BKN048 03/M08 A3017 RMK AO2 PK WND 34043/1653 SLP227 T00281083
KMHE 091553Z AUTO 33028G40KT 10SM SCT043 BKN050 OVC065 02/M07 A3014 RMK AO2 PK WND 33042/1507 SLP219 T00171067
KMHE 091453Z AUTO 34029G42KT 10SM BKN045 02/M07 A3011 RMK AO2 PK WND 34043/1443 SLP206 T00221072 51024
KMHE 091353Z AUTO 33022G32KT 10SM CLR 03/M06 A3008 RMK AO2 PK WND 32034/1340 SLP196 T00281061
KMHE 091253Z AUTO 33022G33KT 10SM CLR 02/M06 A3006 RMK AO2 PK WND 31033/1250 SLP190 T00221061
KMHE 091153Z AUTO 30014KT 10SM CLR 02/M06 A3003 RMK AO2 SLP177 T00221056 10039 20011 55002
KMHE 091053Z AUTO 28014G22KT 10SM FEW085 02/M05 A3002 RMK AO2 SLP174 T00221050
KMHE 090953Z AUTO 28016G22KT 10SM CLR 03/M05 A3003 RMK AO2 SLP175 T00281050
KMHE 090853Z AUTO 28013KT 10SM CLR 02/M05 A3004 RMK AO2 SLP178 T00221050 56006